Urb Sierra Linda, Puerto Rico
Current Conditions -  °F | °C
As of 11:56 PM on Wednesday 22 Oct 2014 (Local Time) from TJSJ Reporting Station
Few Clouds Few Clouds  
Wind Chill: 81°   Ceiling: Unl
Heat Index: 86°   Visibility: 10mi
Dew Point: 74°   Wind: 3mph
Humidity: 79%   Direction: 140°SE
Pressure: 29.96"   Gusts: NA
Location:  18.1783°N, 66.1111°W
Report Text: TJSJ 230356Z 14003KT 10SM FEW042 27/23 A2996 RMK AO2 RAB07E17 SLP144 T02720233 403170256
Loading
Personal Weather Stations






























Interactive Weather Map
Tropical Storm Tracking
New forecast layout! Learn more

10-Day Weather Forecast

Advertisements
Track Severe Weather on mobile